createdAt,value
2018-12-12T00:02:01.574Z,99.48
2018-12-12T00:04:30.838Z,99.41
2018-12-12T00:07:00.193Z,99.54
2018-12-12T00:09:29.467Z,99.42
2018-12-12T00:11:58.852Z,99.67
2018-12-12T00:14:28.113Z,99.89
2018-12-12T00:16:57.371Z,99.81
2018-12-12T00:19:26.728Z,99.77
2018-12-12T00:21:56.002Z,99.88
2018-12-12T00:24:25.283Z,99.90
2018-12-12T00:26:54.591Z,99.70
2018-12-12T00:29:23.873Z,99.77
2018-12-12T00:31:53.155Z,99.85
2018-12-12T00:34:22.426Z,99.58
2018-12-12T00:36:51.681Z,100.00
2018-12-12T00:39:21.047Z,99.95
2018-12-12T00:41:50.304Z,100.00
2018-12-12T00:44:19.675Z,99.76
2018-12-12T00:46:49.262Z,100.00
2018-12-12T00:49:18.487Z,100.00
2018-12-12T00:51:47.915Z,100.00
2018-12-12T00:54:17.199Z,99.87
2018-12-12T00:56:46.504Z,100.00
2018-12-12T00:59:15.869Z,100.00
2018-12-12T01:01:45.248Z,100.00
2018-12-12T01:04:14.547Z,100.00
2018-12-12T01:06:43.941Z,100.00
2018-12-12T01:09:13.215Z,100.00
2018-12-12T01:11:47.864Z,100.00
2018-12-12T01:14:17.196Z,100.00
2018-12-12T01:16:46.483Z,100.00
2018-12-12T01:19:15.769Z,100.00
2018-12-12T01:21:45.378Z,99.89
2018-12-12T01:24:14.748Z,99.30
2018-12-12T01:26:44.125Z,99.59
2018-12-12T01:29:13.552Z,98.58
2018-12-12T01:31:42.879Z,98.74
2018-12-12T01:34:12.257Z,99.07
2018-12-12T01:36:41.539Z,98.89
2018-12-12T01:39:10.867Z,98.36
2018-12-12T01:41:40.227Z,97.63
2018-12-12T01:44:09.490Z,97.74
2018-12-12T01:46:38.754Z,97.90
2018-12-12T01:49:08.024Z,98.52
2018-12-12T01:51:37.456Z,98.51
2018-12-12T01:54:06.939Z,98.68
2018-12-12T01:56:36.420Z,98.25
2018-12-12T01:59:05.653Z,98.36
2018-12-12T02:01:34.928Z,98.39
2018-12-12T02:04:04.431Z,99.15
2018-12-12T02:06:33.697Z,99.25
2018-12-12T02:09:03.023Z,97.97
2018-12-12T02:11:32.357Z,98.31
2018-12-12T02:14:01.580Z,98.05
2018-12-12T02:16:30.948Z,98.00
2018-12-12T02:19:00.569Z,97.67
2018-12-12T02:21:29.862Z,97.80
2018-12-12T02:23:59.094Z,98.34
2018-12-12T02:26:28.348Z,97.88
2018-12-12T02:28:57.677Z,97.23
2018-12-12T02:31:26.933Z,97.53
2018-12-12T02:33:56.333Z,96.97
2018-12-12T02:36:25.756Z,97.34
2018-12-12T02:38:55.029Z,97.74
2018-12-12T02:41:24.271Z,97.92
2018-12-12T02:43:53.583Z,97.76
2018-12-12T02:46:22.872Z,96.88
2018-12-12T02:48:52.139Z,97.00
2018-12-12T02:51:21.380Z,97.02
2018-12-12T02:53:50.630Z,96.89
2018-12-12T02:56:20.074Z,97.11
2018-12-12T02:58:49.306Z,97.01
2018-12-12T03:01:18.691Z,97.45
2018-12-12T03:03:48.048Z,97.74
2018-12-12T03:06:17.279Z,97.60
2018-12-12T03:08:46.524Z,97.51
2018-12-12T03:14:03.228Z,97.87
2018-12-12T03:16:32.525Z,98.57
2018-12-12T03:19:01.813Z,98.82
2018-12-12T03:21:31.088Z,98.86
2018-12-12T03:24:00.327Z,98.81
2018-12-12T03:26:29.591Z,98.52
2018-12-12T03:28:59.361Z,97.33
2018-12-12T03:31:28.718Z,97.26
2018-12-12T03:33:57.999Z,96.68
2018-12-12T03:36:27.297Z,95.81
2018-12-12T03:38:56.607Z,96.05
2018-12-12T03:41:26.126Z,95.91
2018-12-12T03:43:55.359Z,96.08
2018-12-12T03:46:24.819Z,96.90
2018-12-12T03:48:54.068Z,96.76
2018-12-12T03:51:23.464Z,96.47
2018-12-12T03:53:52.726Z,97.07
2018-12-12T03:56:21.995Z,97.88
2018-12-12T03:58:51.198Z,98.08
2018-12-12T04:01:20.558Z,99.05
2018-12-12T04:03:49.997Z,99.48
2018-12-12T04:06:19.291Z,98.82
2018-12-12T04:08:48.532Z,98.45
2018-12-12T04:11:17.815Z,98.00
2018-12-12T04:13:47.099Z,97.82
2018-12-12T04:16:16.803Z,97.98
2018-12-12T04:18:46.478Z,98.53
2018-12-12T04:21:15.716Z,99.37
2018-12-12T04:23:44.990Z,99.35
2018-12-12T04:26:14.348Z,99.13
2018-12-12T04:28:43.692Z,98.64
2018-12-12T04:31:13.156Z,98.45
2018-12-12T04:33:42.440Z,97.80
2018-12-12T04:36:13.041Z,97.98
2018-12-12T04:38:42.332Z,97.98
2018-12-12T04:41:11.617Z,96.97
2018-12-12T04:43:40.907Z,97.54
2018-12-12T04:46:10.203Z,97.81
2018-12-12T04:48:39.503Z,98.06
2018-12-12T04:51:08.829Z,97.66
2018-12-12T04:53:38.229Z,97.83
2018-12-12T04:56:07.544Z,97.17
2018-12-12T04:58:36.811Z,97.41
2018-12-12T05:01:06.235Z,98.04
2018-12-12T05:03:35.628Z,97.82
2018-12-12T05:06:05.050Z,97.89
2018-12-12T05:08:34.379Z,97.43
2018-12-12T05:11:03.763Z,96.92
2018-12-12T05:13:33.100Z,97.89
2018-12-12T05:16:02.543Z,97.29
2018-12-12T05:18:31.848Z,97.82
2018-12-12T05:21:01.142Z,97.59
2018-12-12T05:23:30.459Z,97.32
2018-12-12T05:25:59.771Z,96.75
2018-12-12T05:28:29.364Z,96.67
2018-12-12T05:30:58.996Z,96.72
2018-12-12T05:33:28.380Z,97.02
2018-12-12T05:35:57.742Z,96.57
2018-12-12T05:38:27.180Z,96.07
2018-12-12T05:40:56.584Z,96.81
2018-12-12T05:43:25.923Z,96.75
2018-12-12T05:45:55.267Z,96.39
2018-12-12T05:48:24.585Z,95.94
2018-12-12T05:50:53.885Z,96.48
2018-12-12T05:53:23.184Z,97.54
2018-12-12T05:55:52.481Z,98.20
2018-12-12T05:58:21.799Z,97.96
2018-12-12T06:00:51.189Z,97.95
2018-12-12T06:03:20.455Z,98.63
2018-12-12T06:05:49.756Z,98.50
2018-12-12T06:08:19.091Z,98.30
2018-12-12T06:10:48.387Z,98.14
2018-12-12T06:13:17.751Z,97.51
2018-12-12T06:15:47.049Z,97.93
2018-12-12T06:18:16.425Z,97.90
2018-12-12T06:20:45.760Z,98.08
2018-12-12T06:23:15.159Z,98.33
2018-12-12T06:25:44.483Z,98.89
2018-12-12T06:28:13.804Z,98.41
2018-12-12T06:30:43.091Z,99.26
2018-12-12T06:33:12.397Z,97.71
2018-12-12T06:35:41.658Z,97.65
2018-12-12T06:38:10.679Z,97.62
2018-12-12T06:40:39.963Z,97.48
2018-12-12T06:43:09.287Z,97.73
2018-12-12T06:45:38.700Z,97.17
2018-12-12T06:48:07.970Z,97.09
2018-12-12T06:50:37.291Z,96.86
2018-12-12T06:53:06.566Z,97.33
2018-12-12T06:55:38.679Z,97.18
2018-12-12T06:58:07.957Z,97.80
2018-12-12T07:00:37.252Z,97.60
2018-12-12T07:03:06.517Z,97.43
2018-12-12T07:05:35.760Z,97.26
2018-12-12T07:08:05.042Z,97.74
2018-12-12T07:10:34.337Z,97.34
2018-12-12T07:13:03.567Z,97.04
2018-12-12T07:15:32.826Z,97.09
2018-12-12T07:18:02.332Z,96.53
2018-12-12T07:20:31.635Z,96.36
2018-12-12T07:23:00.931Z,96.13
2018-12-12T07:25:30.212Z,96.56
2018-12-12T07:27:59.525Z,95.31
2018-12-12T07:30:28.877Z,95.67
2018-12-12T07:32:58.166Z,95.30
2018-12-12T07:35:27.552Z,95.41
2018-12-12T07:37:56.941Z,95.51
2018-12-12T07:40:26.336Z,94.83
2018-12-12T07:42:55.671Z,94.42
2018-12-12T07:45:25.289Z,94.43
2018-12-12T07:47:54.600Z,94.21
2018-12-12T07:50:23.887Z,99.18
2018-12-12T07:52:53.163Z,93.57
2018-12-12T07:55:22.697Z,92.85
2018-12-12T07:57:52.103Z,93.76
2018-12-12T08:00:21.400Z,93.39
2018-12-12T08:02:50.700Z,93.33
2018-12-12T08:05:20.003Z,93.63
2018-12-12T08:07:49.267Z,94.53
2018-12-12T08:10:18.635Z,94.75
2018-12-12T08:12:47.950Z,95.42
2018-12-12T08:15:17.215Z,95.85
2018-12-12T08:17:46.556Z,96.09
2018-12-12T08:20:15.879Z,96.82
2018-12-12T08:22:45.196Z,95.87
2018-12-12T08:25:14.452Z,95.62
2018-12-12T08:27:43.779Z,96.32
2018-12-12T08:30:13.578Z,96.63
2018-12-12T08:32:43.039Z,96.25
2018-12-12T08:35:12.415Z,96.77
2018-12-12T08:37:41.779Z,96.25
2018-12-12T08:40:11.197Z,95.48
2018-12-12T08:42:40.503Z,95.36
2018-12-12T08:45:09.959Z,94.82
2018-12-12T08:47:39.346Z,94.48
2018-12-12T08:50:09.477Z,94.21
2018-12-12T08:52:38.717Z,94.89
2018-12-12T08:55:08.246Z,94.40
2018-12-12T08:57:37.533Z,93.72
2018-12-12T09:00:07.760Z,94.32
2018-12-12T09:02:37.097Z,94.10
2018-12-12T09:05:06.796Z,94.05
2018-12-12T09:07:36.116Z,93.31
2018-12-12T09:10:06.471Z,93.21
2018-12-12T09:12:35.999Z,92.31
2018-12-12T09:15:09.019Z,92.92
2018-12-12T09:17:38.409Z,92.87
2018-12-12T09:20:08.333Z,93.55
2018-12-12T09:22:37.730Z,92.70
2018-12-12T09:25:07.443Z,93.77
2018-12-12T09:27:36.768Z,94.51
2018-12-12T09:30:06.652Z,93.99
2018-12-12T09:32:36.008Z,93.53
2018-12-12T09:35:05.616Z,92.51
2018-12-12T09:37:34.923Z,92.09
2018-12-12T09:40:04.690Z,91.46
2018-12-12T09:42:34.088Z,91.99
2018-12-12T09:45:04.906Z,91.67
2018-12-12T09:47:34.552Z,90.42
2018-12-12T09:50:04.117Z,90.76
2018-12-12T09:52:33.467Z,91.14
2018-12-12T09:55:02.830Z,92.14
2018-12-12T09:57:32.059Z,92.42
2018-12-12T10:00:01.384Z,92.30
2018-12-12T10:02:30.600Z,92.46
2018-12-12T10:04:59.819Z,91.78
2018-12-12T10:07:29.165Z,91.86
2018-12-12T10:09:58.441Z,91.84
2018-12-12T10:12:27.793Z,91.23
2018-12-12T10:14:57.107Z,91.12
2018-12-12T10:17:26.473Z,92.00
2018-12-12T10:19:55.756Z,90.65
2018-12-12T10:22:25.023Z,92.34
2018-12-12T10:24:54.401Z,91.09
2018-12-12T10:27:23.688Z,89.81
2018-12-12T10:29:52.970Z,89.46
2018-12-12T10:32:22.253Z,88.62
2018-12-12T10:34:51.521Z,90.69
2018-12-12T10:37:20.820Z,91.38
2018-12-12T10:39:50.096Z,91.38
2018-12-12T10:42:19.449Z,91.46
2018-12-12T10:44:48.824Z,92.01
2018-12-12T10:47:18.117Z,92.38
2018-12-12T10:49:47.440Z,91.67
2018-12-12T10:52:16.672Z,90.63
2018-12-12T10:54:46.120Z,90.30
2018-12-12T10:57:15.379Z,89.64
2018-12-12T10:59:44.748Z,89.67
2018-12-12T11:02:19.193Z,89.44
2018-12-12T11:04:48.468Z,89.41
2018-12-12T11:07:17.743Z,89.32
2018-12-12T11:09:47.052Z,90.48
2018-12-12T11:12:16.420Z,88.27
2018-12-12T11:14:45.691Z,86.99
2018-12-12T11:17:16.115Z,86.03
2018-12-12T11:19:45.529Z,86.58
2018-12-12T11:22:14.904Z,85.67
2018-12-12T11:24:45.160Z,86.72
2018-12-12T11:27:14.667Z,85.64
2018-12-12T11:29:44.036Z,84.37
2018-12-12T11:32:13.423Z,83.57
2018-12-12T11:34:42.737Z,83.84
2018-12-12T11:37:12.035Z,83.47
2018-12-12T11:39:41.433Z,83.75
2018-12-12T11:42:10.793Z,84.05
2018-12-12T11:44:40.061Z,85.44
2018-12-12T11:47:09.327Z,85.58
2018-12-12T11:49:38.678Z,85.33
2018-12-12T11:52:08.044Z,84.64
2018-12-12T11:54:37.533Z,84.53
2018-12-12T11:59:49.055Z,84.49
2018-12-12T12:02:18.358Z,82.39
2018-12-12T12:04:47.684Z,82.65
2018-12-12T12:07:18.414Z,82.46
2018-12-12T12:09:47.887Z,81.74
2018-12-12T12:12:17.259Z,81.67
2018-12-12T12:14:46.628Z,80.83
2018-12-12T12:17:15.907Z,80.91
2018-12-12T12:19:45.696Z,80.00
2018-12-12T12:22:15.022Z,81.18
2018-12-12T12:24:44.350Z,81.07
2018-12-12T12:27:13.653Z,80.20
2018-12-12T12:29:42.996Z,79.81
2018-12-12T12:32:12.436Z,80.11
2018-12-12T12:34:41.862Z,80.75
2018-12-12T12:37:11.206Z,79.00
2018-12-12T12:39:40.602Z,78.70
2018-12-12T12:42:09.907Z,80.06
2018-12-12T12:44:39.216Z,80.73
2018-12-12T12:47:08.612Z,81.55
2018-12-12T12:49:38.001Z,80.97
2018-12-12T12:52:07.420Z,81.71
2018-12-12T12:54:36.742Z,81.61
2018-12-12T12:57:06.240Z,82.55
2018-12-12T12:59:35.576Z,82.95
2018-12-12T13:02:04.914Z,81.63
2018-12-12T13:04:34.237Z,81.67
2018-12-12T13:07:03.593Z,80.62
2018-12-12T13:09:32.914Z,81.58
2018-12-12T13:12:02.275Z,81.82
2018-12-12T13:14:31.947Z,81.65
2018-12-12T13:17:01.302Z,80.93
2018-12-12T13:19:30.656Z,81.96
2018-12-12T13:22:00.066Z,81.77
2018-12-12T13:24:29.354Z,80.75
2018-12-12T13:26:58.613Z,81.22
2018-12-12T13:29:27.826Z,81.50
2018-12-12T13:31:57.145Z,81.86
2018-12-12T13:34:26.532Z,81.68
2018-12-12T13:36:55.883Z,82.31
2018-12-12T13:39:25.189Z,82.66
2018-12-12T13:41:54.508Z,82.36
2018-12-12T13:44:23.776Z,83.17
2018-12-12T13:46:53.165Z,83.06
2018-12-12T13:49:22.419Z,84.56
2018-12-12T13:51:51.783Z,84.54
2018-12-12T13:54:21.204Z,84.49
2018-12-12T13:56:50.540Z,84.52
2018-12-12T13:59:19.815Z,84.45
2018-12-12T14:01:49.157Z,83.48
2018-12-12T14:04:22.713Z,83.22
2018-12-12T14:06:49.688Z,83.89
2018-12-12T14:09:18.978Z,83.66
2018-12-12T14:11:48.313Z,83.14
2018-12-12T14:14:17.612Z,83.07
2018-12-12T14:16:46.941Z,83.34
2018-12-12T14:19:16.244Z,83.37
2018-12-12T14:21:45.530Z,83.45
2018-12-12T14:24:14.796Z,83.58
2018-12-12T14:26:44.097Z,82.94
2018-12-12T14:29:13.420Z,81.99
2018-12-12T14:31:42.676Z,83.81
2018-12-12T14:34:11.998Z,83.65
2018-12-12T14:36:41.302Z,83.55
2018-12-12T14:39:10.715Z,84.50
2018-12-12T14:41:40.005Z,84.50
2018-12-12T14:44:09.421Z,83.54
2018-12-12T14:46:38.712Z,83.57
2018-12-12T14:49:08.425Z,84.36
2018-12-12T14:51:37.806Z,84.47
2018-12-12T14:54:07.186Z,83.30
2018-12-12T14:56:36.485Z,85.00
2018-12-12T14:59:05.889Z,85.21
2018-12-12T15:01:35.227Z,84.90
2018-12-12T15:04:04.649Z,85.25
2018-12-12T15:06:34.114Z,84.94
2018-12-12T15:09:05.555Z,86.12
2018-12-12T15:11:34.832Z,84.85
2018-12-12T15:14:04.252Z,84.07
2018-12-12T15:16:33.644Z,84.71
2018-12-12T15:19:02.946Z,84.18
2018-12-12T15:21:32.251Z,84.95
2018-12-12T15:24:01.490Z,84.50
2018-12-12T15:26:30.787Z,85.38
2018-12-12T15:29:00.083Z,84.84
2018-12-12T15:31:29.376Z,85.70
2018-12-12T15:33:58.660Z,84.80
2018-12-12T15:36:27.969Z,85.58
2018-12-12T15:38:57.219Z,83.99
2018-12-12T15:41:26.712Z,84.48
2018-12-12T15:43:56.104Z,84.37
2018-12-12T15:46:25.450Z,84.64
2018-12-12T15:48:54.721Z,85.12
2018-12-12T15:51:24.049Z,85.34
2018-12-12T15:53:53.320Z,85.94
2018-12-12T15:56:22.664Z,85.44
2018-12-12T15:58:51.953Z,91.64
2018-12-12T16:01:21.443Z,84.40
2018-12-12T16:03:50.679Z,86.88
2018-12-12T16:06:20.064Z,88.33
2018-12-12T16:08:49.427Z,89.14
2018-12-12T16:11:18.707Z,89.20
2018-12-12T16:13:48.010Z,90.09
2018-12-12T16:16:17.346Z,90.16
2018-12-12T16:18:46.630Z,90.00
2018-12-12T16:21:15.945Z,91.02
2018-12-12T16:23:45.271Z,91.29
2018-12-12T16:26:14.697Z,90.87
2018-12-12T16:28:43.993Z,91.76
2018-12-12T16:31:13.391Z,91.18
2018-12-12T16:33:42.720Z,91.87
2018-12-12T16:36:12.060Z,91.39
2018-12-12T16:38:41.457Z,91.25
2018-12-12T16:41:10.765Z,91.28
2018-12-12T16:43:40.054Z,91.98
2018-12-12T16:46:09.392Z,91.62
2018-12-12T16:48:38.747Z,91.85
2018-12-12T16:51:08.191Z,92.44
2018-12-12T16:53:37.518Z,92.76
2018-12-12T16:56:06.841Z,92.58
2018-12-12T16:58:36.449Z,92.61
2018-12-12T17:01:05.932Z,92.99
2018-12-12T17:03:35.983Z,92.92
2018-12-12T17:06:06.772Z,92.80
2018-12-12T17:08:39.234Z,93.33
2018-12-12T17:11:12.803Z,92.92
2018-12-12T17:13:42.123Z,93.57
2018-12-12T17:16:11.498Z,93.12
2018-12-12T17:18:40.900Z,93.44
2018-12-12T17:21:10.167Z,93.79
2018-12-12T17:23:39.399Z,94.28
2018-12-12T17:26:08.697Z,94.17
2018-12-12T17:28:37.983Z,93.06
2018-12-12T17:31:07.262Z,93.25
2018-12-12T17:33:36.571Z,92.95
2018-12-12T17:36:07.967Z,92.95
2018-12-12T17:38:37.300Z,93.36
2018-12-12T17:41:18.466Z,93.35
2018-12-12T17:43:47.727Z,93.79
2018-12-12T17:46:17.028Z,93.45
2018-12-12T17:48:46.307Z,92.83
2018-12-12T17:51:15.695Z,92.59
2018-12-12T17:53:44.971Z,92.66
2018-12-12T17:56:14.535Z,92.49
2018-12-12T17:58:43.836Z,92.89
2018-12-12T18:01:13.344Z,93.54
2018-12-12T18:03:44.783Z,91.92
2018-12-12T18:06:14.134Z,91.43
2018-12-12T18:08:43.420Z,92.28
2018-12-12T18:11:12.985Z,91.58
2018-12-12T18:13:42.432Z,90.74
2018-12-12T18:16:11.890Z,90.90
2018-12-12T18:18:41.207Z,91.99
2018-12-12T18:21:10.492Z,91.32
2018-12-12T18:23:39.915Z,91.31
2018-12-12T18:26:09.236Z,91.79
2018-12-12T18:28:38.656Z,90.92
2018-12-12T18:31:08.016Z,91.04
2018-12-12T18:33:37.356Z,91.13
2018-12-12T18:36:06.796Z,90.98
2018-12-12T18:38:36.141Z,90.62
2018-12-12T18:41:05.732Z,90.96
2018-12-12T18:43:35.093Z,91.49
2018-12-12T18:46:04.405Z,91.59
2018-12-12T18:48:33.735Z,91.76
2018-12-12T18:51:03.076Z,91.56
2018-12-12T18:53:32.484Z,91.50
2018-12-12T18:56:01.773Z,90.61
2018-12-12T18:58:31.149Z,90.95
2018-12-12T19:01:00.532Z,90.49
2018-12-12T19:03:30.016Z,90.84
2018-12-12T19:05:59.433Z,91.17
2018-12-12T19:08:28.807Z,90.92
2018-12-12T19:10:58.204Z,90.76
2018-12-12T19:13:27.648Z,89.83
2018-12-12T19:15:57.167Z,88.78
2018-12-12T19:18:26.513Z,89.42
2018-12-12T19:21:00.101Z,89.27
2018-12-12T19:23:28.134Z,89.54
2018-12-12T19:25:57.428Z,88.54
2018-12-12T19:28:26.788Z,88.43
2018-12-12T19:30:56.086Z,87.55
2018-12-12T19:33:25.459Z,87.13
2018-12-12T19:35:54.721Z,86.74
2018-12-12T19:38:24.088Z,87.39
2018-12-12T19:40:53.631Z,86.95
2018-12-12T19:43:22.921Z,87.58
2018-12-12T19:45:52.318Z,87.43
2018-12-12T19:48:21.624Z,87.16
2018-12-12T19:50:50.893Z,87.81
2018-12-12T19:53:20.232Z,87.61
2018-12-12T19:55:49.610Z,89.36
2018-12-12T19:58:18.993Z,88.58
2018-12-12T20:00:48.303Z,88.24
2018-12-12T20:03:18.800Z,88.24
2018-12-12T20:05:48.131Z,88.42
2018-12-12T20:08:17.625Z,88.63
2018-12-12T20:10:46.923Z,88.46
2018-12-12T20:13:16.381Z,89.14
2018-12-12T20:15:46.666Z,89.55
2018-12-12T20:18:16.235Z,89.52
2018-12-12T20:20:45.633Z,90.12
2018-12-12T20:23:14.925Z,90.95
2018-12-12T20:25:44.367Z,91.10
2018-12-12T20:28:13.733Z,91.91
2018-12-12T20:30:43.014Z,94.02
2018-12-12T20:33:12.348Z,94.73
2018-12-12T20:35:47.861Z,95.23
2018-12-12T20:38:13.434Z,95.11
2018-12-12T20:40:42.773Z,96.45
2018-12-12T20:43:12.075Z,97.11
2018-12-12T20:45:41.708Z,96.41
2018-12-12T20:48:11.099Z,96.57
2018-12-12T20:50:40.449Z,96.44
2018-12-12T20:53:09.816Z,96.52
2018-12-12T20:55:39.155Z,95.43
2018-12-12T20:58:08.552Z,93.89
2018-12-12T21:00:37.885Z,94.19
2018-12-12T21:03:07.301Z,93.90
2018-12-12T21:05:36.729Z,93.39
2018-12-12T21:08:06.170Z,93.01
2018-12-12T21:10:35.672Z,93.40
2018-12-12T21:13:05.180Z,93.16
2018-12-12T21:15:34.594Z,93.16
2018-12-12T21:18:04.067Z,93.59
2018-12-12T21:20:33.379Z,93.82
2018-12-12T21:23:02.691Z,94.35
2018-12-12T21:25:32.748Z,93.61
2018-12-12T21:28:02.048Z,93.12
2018-12-12T21:30:32.247Z,93.97
2018-12-12T21:33:01.562Z,93.23
2018-12-12T21:35:30.873Z,93.53
2018-12-12T21:38:00.270Z,93.74
2018-12-12T21:40:29.615Z,94.28
2018-12-12T21:42:58.920Z,94.11
2018-12-12T21:45:28.308Z,94.45
2018-12-12T21:47:57.604Z,94.12
2018-12-12T21:50:27.044Z,94.10
2018-12-12T21:52:56.314Z,93.60
2018-12-12T21:55:25.657Z,93.81
2018-12-12T21:57:54.923Z,93.67
2018-12-12T22:00:24.577Z,94.07
2018-12-12T22:02:53.891Z,94.14
2018-12-12T22:05:23.209Z,94.29
2018-12-12T22:07:52.255Z,94.21
2018-12-12T22:10:21.620Z,94.17
2018-12-12T22:12:50.978Z,94.24
2018-12-12T22:15:20.400Z,94.34
2018-12-12T22:17:49.782Z,94.42
2018-12-12T22:20:19.106Z,94.30
2018-12-12T22:22:48.396Z,94.30
2018-12-12T22:25:17.705Z,94.91
2018-12-12T22:27:46.994Z,94.47
2018-12-12T22:30:16.356Z,94.79
2018-12-12T22:32:45.661Z,95.07
2018-12-12T22:35:15.112Z,95.15
2018-12-12T22:37:44.364Z,95.03
2018-12-12T22:40:13.648Z,95.88
2018-12-12T22:42:42.951Z,96.38
2018-12-12T22:45:12.305Z,96.44
2018-12-12T22:47:41.584Z,96.64
2018-12-12T22:50:10.986Z,97.03
2018-12-12T22:52:40.274Z,96.83
2018-12-12T22:55:09.639Z,97.42
2018-12-12T22:57:38.897Z,97.62
2018-12-12T23:00:10.484Z,97.47
2018-12-12T23:02:39.788Z,98.03
2018-12-12T23:05:09.250Z,97.73
2018-12-12T23:07:38.559Z,97.18
2018-12-12T23:10:08.202Z,96.29
2018-12-12T23:12:37.512Z,95.68
2018-12-12T23:15:07.193Z,96.34
2018-12-12T23:17:36.512Z,96.72
2018-12-12T23:20:06.817Z,96.71
2018-12-12T23:22:36.183Z,97.36
2018-12-12T23:25:06.004Z,97.54
2018-12-12T23:27:35.300Z,97.91
2018-12-12T23:30:06.376Z,97.82
2018-12-12T23:32:35.775Z,98.47
2018-12-12T23:35:05.341Z,99.22
2018-12-12T23:37:34.655Z,99.45
2018-12-12T23:40:04.218Z,100.00
2018-12-12T23:42:33.494Z,100.00
2018-12-12T23:45:03.006Z,100.00
2018-12-12T23:47:32.303Z,100.00
2018-12-12T23:50:01.622Z,100.00
2018-12-12T23:52:30.896Z,100.00
2018-12-12T23:55:00.196Z,100.00
2018-12-12T23:57:29.519Z,100.00
2018-12-12T23:59:58.821Z,100.00
